createdAt,value
2022-07-26T00:00:48.000Z,62.2
2022-07-26T00:05:48.512Z,62.4
2022-07-26T00:11:41.151Z,63.5
2022-07-26T00:16:48.176Z,63.7
2022-07-26T00:22:41.140Z,63.3
2022-07-26T00:27:41.144Z,63.5
2022-07-26T00:32:41.160Z,64.2
2022-07-26T00:37:48.676Z,65.6
2022-07-26T00:43:41.134Z,66.9
2022-07-26T00:48:41.233Z,67.1
2022-07-26T00:53:48.630Z,67.6
2022-07-26T00:58:48.672Z,67.6
2022-07-26T01:03:48.791Z,67.7
2022-07-26T01:09:41.189Z,68.1
2022-07-26T01:14:47.923Z,67.4
2022-07-26T01:19:48.802Z,68.1
2022-07-26T01:25:43.717Z,68.8
2022-07-26T01:30:41.179Z,68.7
2022-07-26T01:35:47.955Z,68.8
2022-07-26T01:40:48.260Z,68.9
2022-07-26T01:46:41.240Z,68.4
2022-07-26T01:51:41.184Z,68.3
2022-07-26T01:56:48.629Z,67.9
2022-07-26T02:02:41.362Z,67.5
2022-07-26T02:07:47.935Z,67.1
2022-07-26T02:12:47.975Z,67.2
2022-07-26T02:18:41.195Z,69.3
2022-07-26T02:23:47.976Z,68.8
2022-07-26T02:28:49.610Z,68.7
2022-07-26T02:34:41.208Z,68.9
2022-07-26T02:39:48.341Z,72.3
2022-07-26T02:44:48.681Z,71.6
2022-07-26T02:50:41.192Z,71.5
2022-07-26T02:55:47.980Z,72
2022-07-26T03:01:41.286Z,71.9
2022-07-26T03:06:48.688Z,73.5
2022-07-26T03:12:41.200Z,74.2
2022-07-26T03:17:41.205Z,73.6
2022-07-26T03:22:41.242Z,73.5
2022-07-26T03:27:41.224Z,72.9
2022-07-26T03:32:48.520Z,72
2022-07-26T03:37:53.834Z,73
2022-07-26T03:43:41.215Z,71.9
2022-07-26T03:48:48.698Z,72.5
2022-07-26T03:54:41.202Z,72.9
2022-07-26T03:59:41.261Z,72.7
2022-07-26T04:04:48.014Z,71.9
2022-07-26T04:10:41.214Z,72.1
2022-07-26T04:15:48.541Z,73
2022-07-26T04:21:41.196Z,71.2
2022-07-26T04:26:41.243Z,71.1
2022-07-26T04:31:47.989Z,71.2
2022-07-26T04:36:48.599Z,70.5
2022-07-26T04:42:41.245Z,70.8
2022-07-26T04:47:49.193Z,70.6
2022-07-26T04:52:48.110Z,70.3
2022-07-26T04:58:41.237Z,70.3
2022-07-26T05:03:41.260Z,69.7
2022-07-26T05:08:48.571Z,69.8
2022-07-26T05:14:41.239Z,69.5
2022-07-26T05:19:49.251Z,70.3
2022-07-26T05:25:41.227Z,70.3
2022-07-26T05:30:41.358Z,70.9
2022-07-26T05:35:48.439Z,71.1
2022-07-26T05:41:41.250Z,71.8
2022-07-26T05:46:48.021Z,72.4
2022-07-26T05:52:41.245Z,72.6
2022-07-26T05:57:49.626Z,73.2
2022-07-26T06:03:41.243Z,72.5
2022-07-26T06:08:41.371Z,72.8
2022-07-26T06:13:49.296Z,73
2022-07-26T06:19:47.123Z,72.5
2022-07-26T06:24:41.251Z,73.2
2022-07-26T06:29:48.011Z,74.6
2022-07-26T06:34:48.061Z,73.7
2022-07-26T06:39:48.483Z,74.6
2022-07-26T06:44:48.530Z,74.2
2022-07-26T06:50:41.271Z,73.1
2022-07-26T06:55:41.273Z,71.6
2022-07-26T07:00:41.434Z,74.4
2022-07-26T07:05:50.165Z,78.8
2022-07-26T07:10:48.865Z,78.7
2022-07-26T07:16:41.440Z,79
2022-07-26T07:21:48.330Z,77.6
2022-07-26T07:27:41.289Z,77.9
2022-07-26T07:32:48.043Z,77.2
2022-07-26T07:37:53.915Z,75.7
2022-07-26T07:43:41.272Z,73
2022-07-26T07:48:48.170Z,71.9
2022-07-26T07:53:56.821Z,72
2022-07-26T07:59:41.276Z,71.5
2022-07-26T08:04:41.445Z,71.7
2022-07-26T08:09:48.808Z,71.3
2022-07-26T08:15:41.280Z,71.7
2022-07-26T08:20:48.049Z,71.3
2022-07-26T08:25:56.410Z,70.3
2022-07-26T08:30:48.965Z,67.8
2022-07-26T08:36:54.851Z,64.8
2022-07-26T08:41:48.081Z,60.5
2022-07-26T08:46:48.112Z,59.8
2022-07-26T08:52:41.300Z,59.3
2022-07-26T08:57:48.463Z,53
2022-07-26T09:03:41.471Z,53.1
2022-07-26T09:08:48.323Z,55.9
2022-07-26T09:14:41.285Z,53.3
2022-07-26T09:19:41.303Z,54.6
2022-07-26T09:24:41.335Z,49.5
2022-07-26T09:29:48.840Z,50.8
2022-07-26T09:35:49.608Z,53.2
2022-07-26T09:40:41.314Z,54.9
2022-07-26T09:45:48.096Z,55.3
2022-07-26T09:51:41.323Z,54.1
2022-07-26T09:56:48.557Z,50.8
2022-07-26T10:01:48.659Z,44.6
2022-07-26T10:07:41.319Z,41.8
2022-07-26T10:12:41.348Z,41.1
2022-07-26T10:17:49.285Z,40.9
2022-07-26T10:23:41.332Z,42.1
2022-07-26T10:28:41.351Z,42.8
2022-07-26T10:33:48.679Z,41.9
2022-07-26T10:39:41.341Z,42.8
2022-07-26T10:44:48.125Z,41.8
2022-07-26T10:49:48.526Z,42.4
2022-07-26T10:55:41.333Z,43.9
2022-07-26T11:00:48.668Z,44.2
2022-07-26T11:06:41.339Z,44
2022-07-26T11:11:47.203Z,45.3
2022-07-26T11:16:41.388Z,46.1
2022-07-26T11:21:48.147Z,44.8
2022-07-26T11:27:41.332Z,45.8
2022-07-26T11:32:41.479Z,44.5
2022-07-26T11:37:41.373Z,43.5
2022-07-26T11:42:48.803Z,43
2022-07-26T11:48:41.400Z,43.5
2022-07-26T11:53:41.361Z,43
2022-07-26T11:58:41.407Z,42.9
2022-07-26T12:03:49.055Z,45.2
2022-07-26T12:09:41.358Z,44.2
2022-07-26T12:14:41.371Z,43.1
2022-07-26T12:19:41.398Z,44.9
2022-07-26T12:24:48.159Z,45.1
2022-07-26T12:29:48.633Z,44.4
2022-07-26T12:35:41.379Z,44.5
2022-07-26T12:40:41.368Z,46.2
2022-07-26T12:45:41.549Z,53
2022-07-26T12:50:48.729Z,60.2
2022-07-26T12:56:41.402Z,62.8
2022-07-26T13:01:41.977Z,65.2
2022-07-26T13:06:48.164Z,64.2
2022-07-26T13:12:41.392Z,64.2
2022-07-26T13:17:48.178Z,66.1
2022-07-26T13:22:48.730Z,63.9
2022-07-26T13:28:41.397Z,63.8
2022-07-26T13:33:48.153Z,65.5
2022-07-26T13:38:48.202Z,63.3
2022-07-26T13:44:41.403Z,58
2022-07-26T13:49:41.457Z,57.7
2022-07-26T13:54:48.180Z,55.3
2022-07-26T13:59:48.185Z,58.2
2022-07-26T14:05:41.414Z,57.6
2022-07-26T14:10:41.530Z,56.6
2022-07-26T14:15:48.237Z,55.9
2022-07-26T14:21:59.628Z,52.4
2022-07-26T14:26:48.552Z,53.1
2022-07-26T14:31:48.780Z,51.7
2022-07-26T14:36:48.935Z,50.3
2022-07-26T14:42:41.417Z,48.8
2022-07-26T14:47:41.408Z,48
2022-07-26T14:53:41.391Z,48.1
2022-07-26T14:58:41.400Z,51.2
2022-07-26T15:03:41.455Z,47.1
2022-07-26T15:08:41.424Z,48.8
2022-07-26T15:13:48.192Z,46.5
2022-07-26T15:18:48.315Z,50.5
2022-07-26T15:24:41.428Z,48.6
2022-07-26T15:29:41.440Z,48.2
2022-07-26T15:34:48.505Z,48.5
2022-07-26T15:39:48.944Z,50.9
2022-07-26T15:45:41.540Z,52.4
2022-07-26T15:50:48.241Z,53.3
2022-07-26T15:55:48.375Z,55.6
2022-07-26T16:00:49.031Z,55.4
2022-07-26T16:06:41.450Z,57.6
2022-07-26T16:11:41.483Z,57.5
2022-07-26T16:16:41.625Z,58.5
2022-07-26T16:21:49.240Z,58.3
2022-07-26T16:27:41.478Z,61.2
2022-07-26T16:32:48.235Z,59.3
2022-07-26T16:37:48.702Z,58.2
2022-07-26T16:42:49.115Z,58.4
2022-07-26T16:48:41.527Z,59.4
2022-07-26T16:53:41.453Z,62.1
2022-07-26T16:58:41.522Z,60.1
2022-07-26T17:03:51.782Z,58.6
2022-07-26T17:09:41.573Z,57.6
2022-07-26T17:14:51.824Z,59.6
2022-07-26T17:20:41.502Z,60.6
2022-07-26T17:25:41.510Z,58.3
2022-07-26T17:30:51.829Z,59.4
2022-07-26T17:36:42.950Z,60.4
2022-07-26T17:41:51.799Z,60.3
2022-07-26T17:46:51.899Z,60.7
2022-07-26T17:52:41.501Z,62.6
2022-07-26T17:57:41.523Z,64.6
2022-07-26T18:02:41.558Z,62.8
2022-07-26T18:07:51.834Z,61.6
2022-07-26T18:13:41.542Z,63.2
2022-07-26T18:18:51.820Z,62.4
2022-07-26T18:24:41.539Z,61.1
2022-07-26T18:29:51.834Z,62
2022-07-26T18:35:41.523Z,60.7
2022-07-26T18:40:41.563Z,61.1
2022-07-26T18:45:51.814Z,60.9
2022-07-26T18:50:51.830Z,61.2
2022-07-26T18:55:51.833Z,61.8
2022-07-26T19:01:41.685Z,61
2022-07-26T19:06:51.897Z,62
2022-07-26T19:12:41.556Z,61.9
2022-07-26T19:17:41.571Z,62.1
2022-07-26T19:22:41.571Z,61.8
2022-07-26T19:27:51.856Z,63.1
2022-07-26T19:33:41.561Z,62.3
2022-07-26T19:38:41.539Z,62.7
2022-07-26T19:43:41.575Z,63.2
2022-07-26T19:48:41.700Z,64.4
2022-07-26T19:53:41.583Z,64.7
2022-07-26T19:58:51.843Z,64.9
2022-07-26T20:04:45.722Z,65.5
2022-07-26T20:09:41.569Z,65.9
2022-07-26T20:14:41.595Z,66.9
2022-07-26T20:19:51.849Z,67.6
2022-07-26T20:24:51.868Z,69.3
2022-07-26T20:29:51.858Z,68.2
2022-07-26T20:35:41.580Z,68.8
2022-07-26T20:40:41.599Z,68.5
2022-07-26T20:45:41.633Z,68.3
2022-07-26T20:50:51.894Z,68.7
2022-07-26T20:56:41.586Z,69
2022-07-26T21:01:51.976Z,70.6
2022-07-26T21:07:55.927Z,70.9
2022-07-26T21:12:51.851Z,72
2022-07-26T21:17:51.885Z,71.6
2022-07-26T21:23:41.612Z,73
2022-07-26T21:28:51.893Z,73.1
2022-07-26T21:34:41.677Z,73.9
2022-07-26T21:39:41.595Z,72.5
2022-07-26T21:44:51.905Z,72.5
2022-07-26T21:50:41.577Z,73.2
2022-07-26T21:55:41.616Z,72.6
2022-07-26T22:00:51.945Z,73.2
2022-07-26T22:05:51.877Z,72.8
2022-07-26T22:10:51.894Z,73
2022-07-26T22:16:41.738Z,73.4
2022-07-26T22:21:51.893Z,74
2022-07-26T22:26:51.913Z,73
2022-07-26T22:32:41.616Z,75.9
2022-07-26T22:37:41.634Z,75.5
2022-07-26T22:42:41.628Z,74.2
2022-07-26T22:47:56.442Z,74.6
2022-07-26T22:53:41.626Z,73.6
2022-07-26T22:58:51.935Z,73.8
2022-07-26T23:04:41.632Z,74.3
2022-07-26T23:09:51.897Z,73.7
2022-07-26T23:15:41.620Z,72.9
2022-07-26T23:20:41.625Z,72.7
2022-07-26T23:25:41.614Z,73.3
2022-07-26T23:30:41.652Z,73.6
2022-07-26T23:35:51.886Z,71.9
2022-07-26T23:40:51.912Z,73.1
2022-07-26T23:46:41.699Z,72
2022-07-26T23:51:41.635Z,71.7
2022-07-26T23:56:51.905Z,72.8
